createdAt,value
2024-01-24T00:01:37.819Z,20.42
2024-01-24T00:04:04.598Z,20.62
2024-01-24T00:06:31.149Z,20.41
2024-01-24T00:08:57.649Z,20.34
2024-01-24T00:11:24.118Z,20.51
2024-01-24T00:13:50.548Z,20.51
2024-01-24T00:16:17.000Z,20.45
2024-01-24T00:18:43.499Z,20.53
2024-01-24T00:21:09.974Z,20.43
2024-01-24T00:23:36.477Z,20.32
2024-01-24T00:26:02.932Z,20.49
2024-01-24T00:28:29.345Z,20.48
2024-01-24T00:30:55.862Z,20.58
2024-01-24T00:33:22.357Z,20.34
2024-01-24T00:35:48.802Z,20.62
2024-01-24T00:38:15.479Z,20.41
2024-01-24T00:40:41.961Z,20.41
2024-01-24T00:43:08.407Z,20.42
2024-01-24T00:45:34.874Z,20.54
2024-01-24T00:48:01.504Z,20.61
2024-01-24T00:50:28.129Z,20.36
2024-01-24T00:52:54.590Z,20.61
2024-01-24T00:55:21.024Z,20.43
2024-01-24T00:57:47.503Z,20.52
2024-01-24T01:00:13.980Z,20.63
2024-01-24T01:02:40.447Z,20.62
2024-01-24T01:05:06.943Z,20.50
2024-01-24T01:07:33.419Z,20.68
2024-01-24T01:09:59.850Z,20.43
2024-01-24T01:12:26.323Z,20.57
2024-01-24T01:14:52.781Z,20.68
2024-01-24T01:17:19.234Z,20.56
2024-01-24T01:19:45.666Z,20.51
2024-01-24T01:22:12.255Z,20.48
2024-01-24T01:24:38.739Z,20.53
2024-01-24T01:27:05.198Z,20.54
2024-01-24T01:29:31.662Z,20.57
2024-01-24T01:31:58.092Z,20.44
2024-01-24T01:34:24.698Z,20.77
2024-01-24T01:36:51.225Z,20.69
2024-01-24T01:39:17.704Z,20.56
2024-01-24T01:41:44.182Z,20.40
2024-01-24T01:44:10.625Z,20.46
2024-01-24T01:46:37.057Z,20.44
2024-01-24T01:49:03.598Z,20.73
2024-01-24T01:51:30.124Z,20.44
2024-01-24T01:53:56.580Z,20.43
2024-01-24T01:56:23.014Z,20.60
2024-01-24T01:58:49.473Z,20.60
2024-01-24T02:01:16.060Z,20.58
2024-01-24T02:03:47.658Z,20.52
2024-01-24T02:06:14.410Z,20.46
2024-01-24T02:08:40.963Z,20.46
2024-01-24T02:11:07.438Z,20.46
2024-01-24T02:13:33.912Z,20.44
2024-01-24T02:16:00.425Z,20.58
2024-01-24T02:18:26.974Z,20.57
2024-01-24T02:20:53.461Z,20.61
2024-01-24T02:23:19.881Z,20.57
2024-01-24T02:25:46.373Z,20.75
2024-01-24T02:28:12.784Z,20.45
2024-01-24T02:30:39.293Z,20.51
2024-01-24T02:33:05.853Z,20.55
2024-01-24T02:35:32.307Z,20.54
2024-01-24T02:37:58.891Z,20.45
2024-01-24T02:40:25.344Z,20.40
2024-01-24T02:42:51.855Z,20.70
2024-01-24T02:45:18.415Z,20.46
2024-01-24T02:47:44.892Z,20.76
2024-01-24T02:50:13.363Z,20.51
2024-01-24T02:52:41.420Z,20.68
2024-01-24T02:55:07.854Z,20.61
2024-01-24T02:57:34.312Z,20.67
2024-01-24T03:00:00.872Z,20.55
2024-01-24T03:02:27.294Z,20.51
2024-01-24T03:04:53.856Z,20.66
2024-01-24T03:07:20.396Z,20.62
2024-01-24T03:09:46.977Z,20.58
2024-01-24T03:12:13.586Z,20.41
2024-01-24T03:14:40.052Z,20.61
2024-01-24T03:17:06.488Z,20.72
2024-01-24T03:19:33.013Z,20.87
2024-01-24T03:21:59.632Z,20.78
2024-01-24T03:24:26.227Z,20.68
2024-01-24T03:26:52.666Z,20.86
2024-01-24T03:29:19.136Z,20.58
2024-01-24T03:31:45.619Z,20.69
2024-01-24T03:34:12.141Z,20.74
2024-01-24T03:36:38.666Z,20.62
2024-01-24T03:39:05.119Z,20.70
2024-01-24T03:41:31.658Z,20.62
2024-01-24T03:43:58.125Z,20.56
2024-01-24T03:46:24.580Z,20.72
2024-01-24T03:48:51.104Z,20.62
2024-01-24T03:51:17.669Z,20.81
2024-01-24T03:53:44.154Z,21.00
2024-01-24T03:56:10.650Z,20.66
2024-01-24T03:58:37.093Z,20.82
2024-01-24T04:01:03.548Z,20.75
2024-01-24T04:03:30.125Z,20.82
2024-01-24T04:05:56.603Z,20.67
2024-01-24T04:08:23.063Z,20.75
2024-01-24T04:10:49.549Z,20.58
2024-01-24T04:13:15.990Z,20.65
2024-01-24T04:15:45.312Z,20.79
2024-01-24T04:18:12.345Z,20.71
2024-01-24T04:20:38.899Z,20.59
2024-01-24T04:23:05.343Z,20.88
2024-01-24T04:25:31.781Z,20.87
2024-01-24T04:27:58.234Z,20.51
2024-01-24T04:30:24.783Z,20.94
2024-01-24T04:32:51.326Z,20.73
2024-01-24T04:35:17.916Z,20.70
2024-01-24T04:37:44.353Z,20.70
2024-01-24T04:40:10.759Z,20.79
2024-01-24T04:42:37.296Z,20.76
2024-01-24T04:45:03.722Z,21.03
2024-01-24T04:47:30.199Z,21.15
2024-01-24T04:49:57.090Z,22.64
2024-01-24T04:52:23.620Z,21.95
2024-01-24T04:54:50.121Z,22.82
2024-01-24T04:57:16.705Z,22.62
2024-01-24T04:59:50.066Z,22.83
2024-01-24T05:02:22.266Z,23.28
2024-01-24T05:04:49.164Z,23.07
2024-01-24T05:07:15.951Z,23.12
2024-01-24T05:09:42.487Z,23.15
2024-01-24T05:12:08.966Z,23.35
2024-01-24T05:14:35.453Z,23.37
2024-01-24T05:17:01.917Z,23.23
2024-01-24T05:19:28.471Z,23.31
2024-01-24T05:21:55.000Z,23.14
2024-01-24T05:24:21.553Z,23.25
2024-01-24T05:26:47.999Z,23.13
2024-01-24T05:29:15.504Z,23.01
2024-01-24T05:31:42.032Z,23.13
2024-01-24T05:34:08.561Z,23.12
2024-01-24T05:36:35.063Z,22.95
2024-01-24T05:39:01.540Z,22.92
2024-01-24T05:41:27.973Z,22.94
2024-01-24T05:43:54.410Z,22.85
2024-01-24T05:46:20.838Z,22.83
2024-01-24T05:48:47.401Z,22.82
2024-01-24T05:51:13.994Z,22.70
2024-01-24T05:53:40.410Z,22.80
2024-01-24T05:56:06.849Z,23.14
2024-01-24T05:58:33.298Z,23.92
2024-01-24T06:00:59.792Z,24.05
2024-01-24T06:03:26.372Z,24.21
2024-01-24T06:05:53.084Z,24.80
2024-01-24T06:08:19.620Z,24.99
2024-01-24T06:10:46.087Z,25.01
2024-01-24T06:13:12.506Z,24.99
2024-01-24T06:15:38.995Z,24.94
2024-01-24T06:18:05.523Z,24.72
2024-01-24T06:20:31.981Z,24.91
2024-01-24T06:22:58.418Z,24.56
2024-01-24T06:25:24.864Z,24.74
2024-01-24T06:27:51.385Z,25.37
2024-01-24T06:30:22.458Z,25.57
2024-01-24T06:32:50.745Z,25.75
2024-01-24T06:35:17.387Z,25.49
2024-01-24T06:37:43.827Z,25.61
2024-01-24T06:40:10.264Z,25.36
2024-01-24T06:42:36.732Z,25.68
2024-01-24T06:45:03.164Z,25.33
2024-01-24T06:47:29.610Z,25.28
2024-01-24T06:49:56.375Z,25.25
2024-01-24T06:52:22.785Z,25.11
2024-01-24T06:54:49.272Z,25.21
2024-01-24T06:57:16.790Z,25.07
2024-01-24T06:59:43.282Z,24.82
2024-01-24T07:02:09.737Z,25.04
2024-01-24T07:04:36.285Z,24.98
2024-01-24T07:07:02.937Z,24.85
2024-01-24T07:09:29.426Z,24.80
2024-01-24T07:11:55.869Z,24.91
2024-01-24T07:14:22.382Z,24.73
2024-01-24T07:16:48.825Z,25.54
2024-01-24T07:19:15.630Z,26.11
2024-01-24T07:21:42.187Z,26.82
2024-01-24T07:24:08.682Z,26.55
2024-01-24T07:26:35.117Z,26.87
2024-01-24T07:29:01.570Z,27.34
2024-01-24T07:31:27.987Z,27.28
2024-01-24T07:33:54.981Z,27.37
2024-01-24T07:36:21.497Z,27.12
2024-01-24T07:38:47.934Z,27.15
2024-01-24T07:41:14.382Z,26.97
2024-01-24T07:43:40.853Z,27.02
2024-01-24T07:46:07.797Z,26.93
2024-01-24T07:48:34.573Z,26.68
2024-01-24T07:51:01.151Z,26.64
2024-01-24T07:53:27.902Z,27.43
2024-01-24T07:56:02.228Z,27.75
2024-01-24T07:58:33.794Z,27.59
2024-01-24T08:01:00.564Z,27.59
2024-01-24T08:03:27.158Z,27.46
2024-01-24T08:05:53.721Z,27.30
2024-01-24T08:08:20.589Z,27.22
2024-01-24T08:10:47.072Z,27.13
2024-01-24T08:13:13.595Z,27.04
2024-01-24T08:15:40.400Z,27.05
2024-01-24T08:18:07.000Z,27.03
2024-01-24T08:20:33.447Z,26.86
2024-01-24T08:22:59.977Z,26.88
2024-01-24T08:25:26.416Z,26.75
2024-01-24T08:27:52.969Z,26.97
2024-01-24T08:30:19.537Z,27.14
2024-01-24T08:32:46.085Z,27.05
2024-01-24T08:35:12.566Z,26.83
2024-01-24T08:37:39.024Z,27.02
2024-01-24T08:40:05.430Z,26.96
2024-01-24T08:42:31.930Z,26.84
2024-01-24T08:44:58.388Z,26.80
2024-01-24T08:47:24.835Z,26.71
2024-01-24T08:49:51.492Z,26.84
2024-01-24T08:52:18.105Z,26.80
2024-01-24T08:54:45.085Z,26.58
2024-01-24T08:57:12.337Z,26.61
2024-01-24T08:59:38.834Z,26.63
2024-01-24T09:02:05.718Z,26.44
2024-01-24T09:04:32.395Z,26.43
2024-01-24T09:06:59.178Z,26.12
2024-01-24T09:09:25.772Z,26.36
2024-01-24T09:11:56.901Z,26.85
2024-01-24T09:14:24.066Z,26.84
2024-01-24T09:16:50.840Z,26.88
2024-01-24T09:19:18.268Z,26.86
2024-01-24T09:21:44.958Z,26.96
2024-01-24T09:24:11.447Z,26.84
2024-01-24T09:26:37.914Z,26.79
2024-01-24T09:29:04.363Z,26.58
2024-01-24T09:31:30.778Z,26.76
2024-01-24T09:33:57.364Z,26.52
2024-01-24T09:36:23.970Z,26.64
2024-01-24T09:38:50.401Z,26.46
2024-01-24T09:41:17.175Z,26.58
2024-01-24T09:43:43.641Z,26.36
2024-01-24T09:46:10.088Z,26.47
2024-01-24T09:48:36.584Z,26.35
2024-01-24T09:51:03.084Z,26.21
2024-01-24T09:53:29.529Z,26.50
2024-01-24T09:55:55.995Z,26.57
2024-01-24T09:58:22.495Z,26.86
2024-01-24T10:00:49.074Z,27.35
2024-01-24T10:03:15.611Z,27.36
2024-01-24T10:05:42.046Z,27.42
2024-01-24T10:08:08.474Z,27.35
2024-01-24T10:10:34.922Z,27.02
2024-01-24T10:13:01.428Z,27.22
2024-01-24T10:15:27.929Z,27.06
2024-01-24T10:17:54.595Z,27.13
2024-01-24T10:20:21.052Z,27.04
2024-01-24T10:22:47.675Z,27.05
2024-01-24T10:25:14.463Z,26.94
2024-01-24T10:27:41.474Z,27.02
2024-01-24T10:30:08.075Z,26.79
2024-01-24T10:32:34.622Z,26.73
2024-01-24T10:35:01.281Z,26.63
2024-01-24T10:37:27.907Z,26.82
2024-01-24T10:39:54.536Z,26.58
2024-01-24T10:42:21.113Z,26.48
2024-01-24T10:44:47.665Z,26.57
2024-01-24T10:47:14.095Z,26.57
2024-01-24T10:49:40.839Z,26.38
2024-01-24T10:52:07.432Z,26.49
2024-01-24T10:54:33.968Z,26.47
2024-01-24T10:57:00.499Z,26.47
2024-01-24T10:59:27.201Z,26.48
2024-01-24T11:01:53.808Z,26.83
2024-01-24T11:04:20.403Z,26.69
2024-01-24T11:06:47.026Z,26.64
2024-01-24T11:09:13.485Z,26.56
2024-01-24T11:11:39.943Z,26.67
2024-01-24T11:14:06.432Z,26.49
2024-01-24T11:16:33.067Z,26.64
2024-01-24T11:18:59.720Z,26.78
2024-01-24T11:21:26.241Z,26.71
2024-01-24T11:23:52.730Z,26.86
2024-01-24T11:26:19.161Z,26.89
2024-01-24T11:28:45.732Z,26.90
2024-01-24T11:31:12.288Z,26.86
2024-01-24T11:33:38.894Z,26.80
2024-01-24T11:36:05.403Z,26.62
2024-01-24T11:38:32.270Z,26.53
2024-01-24T11:40:58.833Z,26.48
2024-01-24T11:43:25.446Z,26.54
2024-01-24T11:45:51.949Z,26.59
2024-01-24T11:48:18.988Z,26.66
2024-01-24T11:50:45.573Z,26.42
2024-01-24T11:53:12.026Z,26.65
2024-01-24T11:55:38.477Z,26.30
2024-01-24T11:58:05.039Z,26.35
2024-01-24T12:00:31.602Z,26.37
2024-01-24T12:02:58.103Z,26.28
2024-01-24T12:05:24.569Z,26.26
2024-01-24T12:07:51.012Z,26.33
2024-01-24T12:10:18.003Z,26.12
2024-01-24T12:12:44.499Z,25.97
2024-01-24T12:15:10.941Z,25.85
2024-01-24T12:17:40.137Z,25.82
2024-01-24T12:20:07.610Z,25.73
2024-01-24T12:22:34.268Z,25.80
2024-01-24T12:25:00.799Z,25.90
2024-01-24T12:27:27.318Z,25.75
2024-01-24T12:29:54.236Z,25.75
2024-01-24T12:32:20.794Z,25.74
2024-01-24T12:34:47.374Z,25.81
2024-01-24T12:37:14.142Z,25.70
2024-01-24T12:39:40.706Z,25.86
2024-01-24T12:42:07.258Z,25.53
2024-01-24T12:44:33.702Z,25.60
2024-01-24T12:47:00.389Z,25.72
2024-01-24T12:49:27.184Z,25.39
2024-01-24T12:51:53.818Z,25.55
2024-01-24T12:54:20.340Z,25.48
2024-01-24T12:56:46.899Z,25.89
2024-01-24T12:59:13.450Z,25.70
2024-01-24T13:01:41.719Z,26.12
2024-01-24T13:04:08.278Z,26.36
2024-01-24T13:06:34.904Z,26.20
2024-01-24T13:09:01.348Z,26.85
2024-01-24T13:11:27.810Z,27.13
2024-01-24T13:13:54.379Z,27.15
2024-01-24T13:16:20.970Z,26.87
2024-01-24T13:18:47.518Z,26.68
2024-01-24T13:21:13.975Z,26.78
2024-01-24T13:23:40.411Z,26.80
2024-01-24T13:26:06.904Z,26.57
2024-01-24T13:28:33.384Z,26.32
2024-01-24T13:30:59.926Z,26.63
2024-01-24T13:33:26.556Z,26.28
2024-01-24T13:35:53.079Z,26.16
2024-01-24T13:38:19.531Z,26.15
2024-01-24T13:40:46.224Z,26.40
2024-01-24T13:43:12.888Z,26.26
2024-01-24T13:45:41.253Z,26.38
2024-01-24T13:48:08.987Z,26.38
2024-01-24T13:50:35.604Z,26.54
2024-01-24T13:53:02.337Z,26.07
2024-01-24T13:55:28.912Z,26.35
2024-01-24T13:57:55.520Z,26.44
2024-01-24T14:00:22.308Z,26.51
2024-01-24T14:02:49.072Z,26.50
2024-01-24T14:05:15.669Z,26.40
2024-01-24T14:07:42.275Z,26.45
2024-01-24T14:10:09.126Z,26.85
2024-01-24T14:12:35.721Z,26.61
2024-01-24T14:15:07.732Z,26.65
2024-01-24T14:17:41.269Z,26.96
2024-01-24T14:20:08.003Z,26.23
2024-01-24T14:22:34.435Z,26.67
2024-01-24T14:25:00.999Z,27.05
2024-01-24T14:27:27.688Z,27.19
2024-01-24T14:29:54.161Z,27.28
2024-01-24T14:32:20.611Z,27.03
2024-01-24T14:34:47.130Z,27.16
2024-01-24T14:37:13.850Z,27.25
2024-01-24T14:39:40.332Z,26.98
2024-01-24T14:42:06.777Z,26.82
2024-01-24T14:44:33.221Z,26.69
2024-01-24T14:46:59.639Z,26.77
2024-01-24T14:49:26.167Z,26.58
2024-01-24T14:51:52.681Z,26.79
2024-01-24T14:54:19.118Z,26.62
2024-01-24T14:56:47.033Z,26.32
2024-01-24T14:59:14.958Z,26.34
2024-01-24T15:01:41.488Z,26.31
2024-01-24T15:04:08.162Z,26.25
2024-01-24T15:06:34.752Z,26.09
2024-01-24T15:09:01.246Z,26.21
2024-01-24T15:11:27.670Z,26.13
2024-01-24T15:13:54.130Z,26.03
2024-01-24T15:16:20.578Z,26.15
2024-01-24T15:18:47.105Z,25.97
2024-01-24T15:21:14.399Z,26.13
2024-01-24T15:23:42.522Z,25.85
2024-01-24T15:26:09.082Z,25.75
2024-01-24T15:28:36.200Z,26.02
2024-01-24T15:31:04.728Z,25.64
2024-01-24T15:33:31.331Z,25.72
2024-01-24T15:35:57.843Z,25.72
2024-01-24T15:38:24.341Z,25.80
2024-01-24T15:40:50.796Z,25.61
2024-01-24T15:43:17.880Z,25.55
2024-01-24T15:45:44.432Z,25.56
2024-01-24T15:48:11.095Z,25.54
2024-01-24T15:50:37.679Z,25.50
2024-01-24T15:53:04.184Z,25.37
2024-01-24T15:55:30.637Z,25.37
2024-01-24T15:57:57.693Z,25.44
2024-01-24T16:00:24.233Z,25.54
2024-01-24T16:02:51.011Z,25.56
2024-01-24T16:05:18.004Z,25.49
2024-01-24T16:07:44.660Z,25.57
2024-01-24T16:10:11.176Z,25.49
2024-01-24T16:12:40.139Z,25.11
2024-01-24T16:15:06.726Z,25.36
2024-01-24T16:17:33.220Z,25.02
2024-01-24T16:19:59.750Z,25.18
2024-01-24T16:22:32.542Z,25.21
2024-01-24T16:25:02.705Z,25.18
2024-01-24T16:27:29.245Z,25.18
2024-01-24T16:29:55.697Z,25.16
2024-01-24T16:32:22.122Z,24.84
2024-01-24T16:34:48.628Z,24.85
2024-01-24T16:37:15.288Z,24.84
2024-01-24T16:39:41.720Z,24.76
2024-01-24T16:42:08.230Z,24.98
2024-01-24T16:44:34.730Z,25.00
2024-01-24T16:47:01.151Z,24.93
2024-01-24T16:49:27.698Z,24.59
2024-01-24T16:51:54.196Z,24.63
2024-01-24T16:54:20.684Z,24.51
2024-01-24T16:59:18.474Z,24.58
2024-01-24T17:01:45.002Z,24.51
2024-01-24T17:04:11.836Z,24.48
2024-01-24T17:06:40.656Z,24.62
2024-01-24T17:09:08.011Z,24.58
2024-01-24T17:11:34.446Z,24.31
2024-01-24T17:14:00.862Z,24.38
2024-01-24T17:16:27.339Z,24.31
2024-01-24T17:18:53.847Z,24.19
2024-01-24T17:21:20.348Z,24.08
2024-01-24T17:23:46.825Z,24.21
2024-01-24T17:26:13.498Z,24.08
2024-01-24T17:28:39.951Z,24.18
2024-01-24T17:31:06.436Z,23.85
2024-01-24T17:33:33.050Z,24.13
2024-01-24T17:35:59.573Z,24.09
2024-01-24T17:38:26.158Z,23.74
2024-01-24T17:40:52.761Z,24.04
2024-01-24T17:43:19.212Z,23.73
2024-01-24T17:45:45.765Z,23.84
2024-01-24T17:48:12.627Z,23.78
2024-01-24T17:50:39.179Z,23.56
2024-01-24T17:53:05.756Z,23.86
2024-01-24T17:55:32.230Z,23.75
2024-01-24T17:57:59.001Z,23.92
2024-01-24T18:00:25.464Z,23.73
2024-01-24T18:02:52.182Z,23.54
2024-01-24T18:05:18.680Z,23.78
2024-01-24T18:07:45.255Z,23.46
2024-01-24T18:10:11.916Z,23.46
2024-01-24T18:12:38.425Z,23.52
2024-01-24T18:15:04.868Z,23.44
2024-01-24T18:17:31.330Z,23.40
2024-01-24T18:19:57.869Z,23.35
2024-01-24T18:22:24.342Z,23.57
2024-01-24T18:24:50.907Z,23.33
2024-01-24T18:27:17.369Z,23.45
2024-01-24T18:29:43.794Z,23.29
2024-01-24T18:32:10.248Z,23.36
2024-01-24T18:34:38.259Z,23.44
2024-01-24T18:37:04.969Z,23.21
2024-01-24T18:39:31.457Z,23.26
2024-01-24T18:41:57.886Z,23.14
2024-01-24T18:44:24.353Z,23.40
2024-01-24T18:46:50.855Z,23.45
2024-01-24T18:49:17.638Z,23.18
2024-01-24T18:51:44.150Z,23.02
2024-01-24T18:54:10.671Z,23.12
2024-01-24T18:56:37.108Z,23.25
2024-01-24T18:59:03.789Z,23.01
2024-01-24T19:01:30.568Z,22.93
2024-01-24T19:03:57.884Z,22.97
2024-01-24T19:06:27.104Z,23.12
2024-01-24T19:08:53.609Z,22.95
2024-01-24T19:11:20.089Z,22.72
2024-01-24T19:13:46.793Z,22.93
2024-01-24T19:16:13.307Z,22.74
2024-01-24T19:18:39.888Z,22.74
2024-01-24T19:21:06.438Z,22.99
2024-01-24T19:23:32.889Z,22.72
2024-01-24T19:25:59.359Z,22.90
2024-01-24T19:28:25.842Z,22.89
2024-01-24T19:30:52.341Z,22.80
2024-01-24T19:33:18.893Z,22.67
2024-01-24T19:35:45.407Z,22.60
2024-01-24T19:38:11.813Z,22.75
2024-01-24T19:40:38.273Z,22.73
2024-01-24T19:43:04.762Z,22.86
2024-01-24T19:45:31.500Z,22.69
2024-01-24T19:47:58.049Z,22.51
2024-01-24T19:50:24.722Z,22.65
2024-01-24T19:52:51.248Z,22.75
2024-01-24T19:55:17.688Z,22.50
2024-01-24T19:57:44.160Z,22.75
2024-01-24T20:00:12.748Z,22.82
2024-01-24T20:02:39.475Z,22.43
2024-01-24T20:05:07.220Z,22.74
2024-01-24T20:07:33.755Z,22.52
2024-01-24T20:10:00.430Z,22.40
2024-01-24T20:12:26.958Z,22.49
2024-01-24T20:14:53.498Z,22.34
2024-01-24T20:17:19.954Z,22.33
2024-01-24T20:19:46.531Z,22.71
2024-01-24T20:22:13.028Z,22.71
2024-01-24T20:24:39.509Z,22.42
2024-01-24T20:27:05.946Z,22.22
2024-01-24T20:29:32.365Z,22.33
2024-01-24T20:31:58.825Z,22.30
2024-01-24T20:34:25.423Z,22.32
2024-01-24T20:36:51.961Z,22.37
2024-01-24T20:39:18.481Z,22.33
2024-01-24T20:41:44.997Z,22.28
2024-01-24T20:44:11.430Z,22.20
2024-01-24T20:46:37.911Z,22.26
2024-01-24T20:49:04.410Z,22.22
2024-01-24T20:51:30.970Z,22.13
2024-01-24T20:53:57.424Z,22.07
2024-01-24T20:56:23.881Z,22.36
2024-01-24T20:58:50.306Z,22.25
2024-01-24T21:01:16.827Z,22.36
2024-01-24T21:03:43.516Z,22.28
2024-01-24T21:06:10.299Z,22.35
2024-01-24T21:08:36.883Z,22.24
2024-01-24T21:11:04.506Z,22.22
2024-01-24T21:13:31.161Z,21.94
2024-01-24T21:15:57.896Z,22.00
2024-01-24T21:18:24.426Z,22.19
2024-01-24T21:20:51.270Z,21.89
2024-01-24T21:23:18.006Z,21.83
2024-01-24T21:25:44.476Z,22.15
2024-01-24T21:28:10.951Z,22.17
2024-01-24T21:30:37.526Z,21.96
2024-01-24T21:33:04.079Z,21.76
2024-01-24T21:35:30.546Z,21.89
2024-01-24T21:37:56.990Z,22.14
2024-01-24T21:40:23.465Z,21.82
2024-01-24T21:42:49.959Z,22.12
2024-01-24T21:45:17.830Z,21.75
2024-01-24T21:47:44.264Z,21.78
2024-01-24T21:50:10.762Z,21.92
2024-01-24T21:52:37.223Z,21.86
2024-01-24T21:55:03.717Z,22.10
2024-01-24T21:57:30.149Z,21.88
2024-01-24T21:59:56.595Z,21.90
2024-01-24T22:02:23.050Z,21.84
2024-01-24T22:04:49.579Z,21.92
2024-01-24T22:07:16.221Z,21.69
2024-01-24T22:09:42.736Z,21.86
2024-01-24T22:12:09.183Z,21.95
2024-01-24T22:14:35.636Z,21.47
2024-01-24T22:17:02.032Z,21.55
2024-01-24T22:19:28.673Z,21.55
2024-01-24T22:21:55.215Z,21.52
2024-01-24T22:24:21.668Z,21.63
2024-01-24T22:26:48.115Z,21.86
2024-01-24T22:29:14.539Z,21.46
2024-01-24T22:31:40.939Z,21.60
2024-01-24T22:34:07.552Z,21.67
2024-01-24T22:36:34.172Z,21.57
2024-01-24T22:39:00.624Z,21.49
2024-01-24T22:41:27.087Z,21.49
2024-01-24T22:43:55.352Z,21.71
2024-01-24T22:46:22.485Z,21.77
2024-01-24T22:48:49.081Z,21.71
2024-01-24T22:51:16.049Z,21.41
2024-01-24T22:53:42.491Z,21.77
2024-01-24T22:56:08.961Z,21.37
2024-01-24T22:58:35.411Z,21.76
2024-01-24T23:01:01.933Z,21.43
2024-01-24T23:03:28.421Z,21.50
2024-01-24T23:05:54.858Z,21.33
2024-01-24T23:08:21.479Z,21.33
2024-01-24T23:10:47.951Z,21.31
2024-01-24T23:13:14.521Z,21.27
2024-01-24T23:15:41.094Z,21.52
2024-01-24T23:18:07.776Z,21.29
2024-01-24T23:20:34.544Z,21.57
2024-01-24T23:23:01.104Z,21.47
2024-01-24T23:25:27.583Z,21.24
2024-01-24T23:27:54.144Z,21.21
2024-01-24T23:30:20.589Z,21.20
2024-01-24T23:32:47.090Z,21.13
2024-01-24T23:35:13.708Z,21.49
2024-01-24T23:37:40.298Z,21.45
2024-01-24T23:40:07.068Z,21.04
2024-01-24T23:42:33.936Z,21.37
2024-01-24T23:45:00.431Z,21.14
2024-01-24T23:47:26.844Z,21.07
2024-01-24T23:49:53.403Z,21.13
2024-01-24T23:52:19.985Z,21.13
2024-01-24T23:54:46.483Z,21.11
2024-01-24T23:57:12.959Z,21.25
2024-01-24T23:59:39.439Z,21.05
